sensor_id;sensor_type;location;lat;lon;timestamp;temperature;humidity
20337;DHT22;10326;53.660;10.200;2023-02-01T00:01:31;7.50;86.80
20337;DHT22;10326;53.660;10.200;2023-02-01T00:03:58;7.50;86.60
20337;DHT22;10326;53.660;10.200;2023-02-01T00:06:25;7.60;86.50
20337;DHT22;10326;53.660;10.200;2023-02-01T00:08:52;7.60;86.40
20337;DHT22;10326;53.660;10.200;2023-02-01T00:11:22;7.60;86.30
20337;DHT22;10326;53.660;10.200;2023-02-01T00:13:50;7.60;86.30
20337;DHT22;10326;53.660;10.200;2023-02-01T00:16:19;7.60;86.30
20337;DHT22;10326;53.660;10.200;2023-02-01T00:18:49;7.60;86.40
20337;DHT22;10326;53.660;10.200;2023-02-01T00:21:20;7.50;86.30
20337;DHT22;10326;53.660;10.200;2023-02-01T00:23:47;7.60;86.40
20337;DHT22;10326;53.660;10.200;2023-02-01T00:26:16;7.50;86.20
20337;DHT22;10326;53.660;10.200;2023-02-01T00:28:46;7.50;86.20
20337;DHT22;10326;53.660;10.200;2023-02-01T00:31:14;7.50;86.10
20337;DHT22;10326;53.660;10.200;2023-02-01T00:33:41;7.50;86.30
20337;DHT22;10326;53.660;10.200;2023-02-01T00:36:09;7.60;86.30
20337;DHT22;10326;53.660;10.200;2023-02-01T00:38:37;7.60;86.40
20337;DHT22;10326;53.660;10.200;2023-02-01T00:41:06;7.60;86.40
20337;DHT22;10326;53.660;10.200;2023-02-01T00:43:35;7.60;86.50
20337;DHT22;10326;53.660;10.200;2023-02-01T00:46:04;7.60;86.50
20337;DHT22;10326;53.660;10.200;2023-02-01T00:48:31;7.60;86.50
20337;DHT22;10326;53.660;10.200;2023-02-01T00:50:59;7.60;86.50
20337;DHT22;10326;53.660;10.200;2023-02-01T00:53:27;7.60;86.50
20337;DHT22;10326;53.660;10.200;2023-02-01T00:55:54;7.70;86.50
20337;DHT22;10326;53.660;10.200;2023-02-01T00:58:22;7.70;86.40
20337;DHT22;10326;53.660;10.200;2023-02-01T01:00:49;7.70;86.40
20337;DHT22;10326;53.660;10.200;2023-02-01T01:03:17;7.70;86.40
20337;DHT22;10326;53.660;10.200;2023-02-01T01:05:45;7.80;86.50
20337;DHT22;10326;53.660;10.200;2023-02-01T01:08:12;7.80;86.40
20337;DHT22;10326;53.660;10.200;2023-02-01T01:10:40;7.80;86.50
20337;DHT22;10326;53.660;10.200;2023-02-01T01:13:07;7.80;86.40
20337;DHT22;10326;53.660;10.200;2023-02-01T01:15:36;7.90;86.40
20337;DHT22;10326;53.660;10.200;2023-02-01T01:18:03;7.90;86.40
20337;DHT22;10326;53.660;10.200;2023-02-01T01:20:34;7.90;86.40
20337;DHT22;10326;53.660;10.200;2023-02-01T01:23:03;7.90;86.30
20337;DHT22;10326;53.660;10.200;2023-02-01T01:25:30;8.00;86.40
20337;DHT22;10326;53.660;10.200;2023-02-01T01:27:58;8.00;86.30
20337;DHT22;10326;53.660;10.200;2023-02-01T01:30:25;8.00;86.30
20337;DHT22;10326;53.660;10.200;2023-02-01T01:32:52;8.00;86.30
20337;DHT22;10326;53.660;10.200;2023-02-01T01:35:19;8.00;86.20
20337;DHT22;10326;53.660;10.200;2023-02-01T01:37:47;8.10;86.30
20337;DHT22;10326;53.660;10.200;2023-02-01T01:40:14;8.10;86.20
20337;DHT22;10326;53.660;10.200;2023-02-01T01:42:43;8.10;86.20
20337;DHT22;10326;53.660;10.200;2023-02-01T01:45:21;8.10;86.30
20337;DHT22;10326;53.660;10.200;2023-02-01T01:47:53;8.10;86.20
20337;DHT22;10326;53.660;10.200;2023-02-01T01:50:25;8.20;86.30
20337;DHT22;10326;53.660;10.200;2023-02-01T01:52:57;8.20;86.30
20337;DHT22;10326;53.660;10.200;2023-02-01T01:55:27;8.20;86.20
20337;DHT22;10326;53.660;10.200;2023-02-01T01:58:02;8.20;86.20
20337;DHT22;10326;53.660;10.200;2023-02-01T02:00:31;8.20;86.10
20337;DHT22;10326;53.660;10.200;2023-02-01T02:03:03;8.20;86.00
20337;DHT22;10326;53.660;10.200;2023-02-01T02:05:34;8.30;86.10
20337;DHT22;10326;53.660;10.200;2023-02-01T02:08:02;8.30;86.00
20337;DHT22;10326;53.660;10.200;2023-02-01T02:10:30;8.30;86.00
20337;DHT22;10326;53.660;10.200;2023-02-01T02:13:12;8.30;85.90
20337;DHT22;10326;53.660;10.200;2023-02-01T02:15:44;8.30;86.00
20337;DHT22;10326;53.660;10.200;2023-02-01T02:18:27;8.30;85.80
20337;DHT22;10326;53.660;10.200;2023-02-01T02:21:10;8.30;85.60
20337;DHT22;10326;53.660;10.200;2023-02-01T02:24:18;8.30;85.70
20337;DHT22;10326;53.660;10.200;2023-02-01T02:27:05;8.30;85.70
20337;DHT22;10326;53.660;10.200;2023-02-01T02:30:34;8.40;85.80
20337;DHT22;10326;53.660;10.200;2023-02-01T02:33:37;8.40;85.60
20337;DHT22;10326;53.660;10.200;2023-02-01T02:36:12;8.40;85.70
20337;DHT22;10326;53.660;10.200;2023-02-01T02:38:49;8.40;85.80
20337;DHT22;10326;53.660;10.200;2023-02-01T02:41:26;8.40;85.70
20337;DHT22;10326;53.660;10.200;2023-02-01T02:44:19;8.40;86.30
20337;DHT22;10326;53.660;10.200;2023-02-01T02:47:13;8.40;85.80
20337;DHT22;10326;53.660;10.200;2023-02-01T02:49:56;8.50;85.90
20337;DHT22;10326;53.660;10.200;2023-02-01T02:52:48;8.40;85.80
20337;DHT22;10326;53.660;10.200;2023-02-01T02:55:38;8.40;85.80
20337;DHT22;10326;53.660;10.200;2023-02-01T02:58:07;8.40;85.80
20337;DHT22;10326;53.660;10.200;2023-02-01T03:00:53;8.40;85.90
20337;DHT22;10326;53.660;10.200;2023-02-01T03:03:39;8.40;86.00
20337;DHT22;10326;53.660;10.200;2023-02-01T03:06:25;8.40;86.00
20337;DHT22;10326;53.660;10.200;2023-02-01T03:08:57;8.30;86.10
20337;DHT22;10326;53.660;10.200;2023-02-01T03:11:25;8.30;85.80
20337;DHT22;10326;53.660;10.200;2023-02-01T03:14:15;8.20;85.80
20337;DHT22;10326;53.660;10.200;2023-02-01T03:16:46;8.20;86.00
20337;DHT22;10326;53.660;10.200;2023-02-01T03:19:19;8.20;85.90
20337;DHT22;10326;53.660;10.200;2023-02-01T03:21:52;8.20;86.00
20337;DHT22;10326;53.660;10.200;2023-02-01T03:24:23;8.10;86.10
20337;DHT22;10326;53.660;10.200;2023-02-01T03:27:02;8.00;86.30
20337;DHT22;10326;53.660;10.200;2023-02-01T03:29:38;8.00;86.40
20337;DHT22;10326;53.660;10.200;2023-02-01T03:32:07;8.00;86.80
20337;DHT22;10326;53.660;10.200;2023-02-01T03:34:36;7.90;86.70
20337;DHT22;10326;53.660;10.200;2023-02-01T03:37:07;7.90;86.90
20337;DHT22;10326;53.660;10.200;2023-02-01T03:39:39;7.90;87.10
20337;DHT22;10326;53.660;10.200;2023-02-01T03:42:12;7.90;87.40
20337;DHT22;10326;53.660;10.200;2023-02-01T03:44:47;7.80;87.50
20337;DHT22;10326;53.660;10.200;2023-02-01T03:47:18;7.80;87.70
20337;DHT22;10326;53.660;10.200;2023-02-01T03:49:53;7.80;87.70
20337;DHT22;10326;53.660;10.200;2023-02-01T03:52:28;7.80;87.70
20337;DHT22;10326;53.660;10.200;2023-02-01T03:54:57;7.80;87.70
20337;DHT22;10326;53.660;10.200;2023-02-01T03:57:29;7.80;87.70
20337;DHT22;10326;53.660;10.200;2023-02-01T04:00:04;7.80;87.80
20337;DHT22;10326;53.660;10.200;2023-02-01T04:02:39;7.90;88.20
20337;DHT22;10326;53.660;10.200;2023-02-01T04:05:07;7.80;87.90
20337;DHT22;10326;53.660;10.200;2023-02-01T04:07:37;7.80;87.70
20337;DHT22;10326;53.660;10.200;2023-02-01T04:10:05;7.90;87.90
20337;DHT22;10326;53.660;10.200;2023-02-01T04:12:32;7.80;88.00
20337;DHT22;10326;53.660;10.200;2023-02-01T04:14:59;7.90;88.10
20337;DHT22;10326;53.660;10.200;2023-02-01T04:17:26;7.90;88.10
20337;DHT22;10326;53.660;10.200;2023-02-01T04:19:53;7.90;88.00
20337;DHT22;10326;53.660;10.200;2023-02-01T04:22:20;7.90;88.00
20337;DHT22;10326;53.660;10.200;2023-02-01T04:24:48;7.90;88.10
20337;DHT22;10326;53.660;10.200;2023-02-01T04:27:15;7.90;87.80
20337;DHT22;10326;53.660;10.200;2023-02-01T04:29:42;7.90;87.40
20337;DHT22;10326;53.660;10.200;2023-02-01T04:32:10;7.90;87.10
20337;DHT22;10326;53.660;10.200;2023-02-01T04:34:37;7.90;87.10
20337;DHT22;10326;53.660;10.200;2023-02-01T04:37:04;7.80;87.00
20337;DHT22;10326;53.660;10.200;2023-02-01T04:39:31;7.80;87.10
20337;DHT22;10326;53.660;10.200;2023-02-01T04:42:00;7.70;87.10
20337;DHT22;10326;53.660;10.200;2023-02-01T04:44:27;7.70;87.10
20337;DHT22;10326;53.660;10.200;2023-02-01T04:46:54;7.60;87.10
20337;DHT22;10326;53.660;10.200;2023-02-01T04:49:21;7.60;87.00
20337;DHT22;10326;53.660;10.200;2023-02-01T04:51:48;7.60;87.10
20337;DHT22;10326;53.660;10.200;2023-02-01T04:54:15;7.60;87.30
20337;DHT22;10326;53.660;10.200;2023-02-01T04:56:42;7.50;87.50
20337;DHT22;10326;53.660;10.200;2023-02-01T04:59:11;7.50;87.60
20337;DHT22;10326;53.660;10.200;2023-02-01T05:01:38;7.50;87.90
20337;DHT22;10326;53.660;10.200;2023-02-01T05:04:05;7.50;88.00
20337;DHT22;10326;53.660;10.200;2023-02-01T05:06:32;7.50;88.10
20337;DHT22;10326;53.660;10.200;2023-02-01T05:08:59;7.40;88.20
20337;DHT22;10326;53.660;10.200;2023-02-01T05:11:26;7.40;88.00
20337;DHT22;10326;53.660;10.200;2023-02-01T05:14:12;7.40;88.10
20337;DHT22;10326;53.660;10.200;2023-02-01T05:16:40;7.30;88.20
20337;DHT22;10326;53.660;10.200;2023-02-01T05:19:06;7.30;88.00
20337;DHT22;10326;53.660;10.200;2023-02-01T05:21:33;7.30;88.00
20337;DHT22;10326;53.660;10.200;2023-02-01T05:24:00;7.30;88.10
20337;DHT22;10326;53.660;10.200;2023-02-01T05:26:39;7.30;88.10
20337;DHT22;10326;53.660;10.200;2023-02-01T05:29:07;7.30;88.30
20337;DHT22;10326;53.660;10.200;2023-02-01T05:31:36;7.30;88.40
20337;DHT22;10326;53.660;10.200;2023-02-01T05:34:04;7.30;88.40
20337;DHT22;10326;53.660;10.200;2023-02-01T05:36:32;7.30;88.30
20337;DHT22;10326;53.660;10.200;2023-02-01T05:38:59;7.30;88.40
20337;DHT22;10326;53.660;10.200;2023-02-01T05:41:26;7.30;88.50
20337;DHT22;10326;53.660;10.200;2023-02-01T05:43:53;7.30;88.40
20337;DHT22;10326;53.660;10.200;2023-02-01T05:46:21;7.20;88.20
20337;DHT22;10326;53.660;10.200;2023-02-01T05:48:49;7.20;88.20
20337;DHT22;10326;53.660;10.200;2023-02-01T05:51:16;7.20;88.10
20337;DHT22;10326;53.660;10.200;2023-02-01T05:53:43;7.20;87.90
20337;DHT22;10326;53.660;10.200;2023-02-01T05:56:10;7.20;87.40
20337;DHT22;10326;53.660;10.200;2023-02-01T05:58:37;7.10;87.20
20337;DHT22;10326;53.660;10.200;2023-02-01T06:01:04;7.10;87.20
20337;DHT22;10326;53.660;10.200;2023-02-01T06:03:31;7.00;87.20
20337;DHT22;10326;53.660;10.200;2023-02-01T06:05:59;7.00;87.30
20337;DHT22;10326;53.660;10.200;2023-02-01T06:08:27;6.90;87.20
20337;DHT22;10326;53.660;10.200;2023-02-01T06:10:57;6.90;87.20
20337;DHT22;10326;53.660;10.200;2023-02-01T06:13:25;6.80;87.40
20337;DHT22;10326;53.660;10.200;2023-02-01T06:15:52;6.80;87.40
20337;DHT22;10326;53.660;10.200;2023-02-01T06:18:19;6.80;87.50
20337;DHT22;10326;53.660;10.200;2023-02-01T06:20:52;6.70;87.50
20337;DHT22;10326;53.660;10.200;2023-02-01T06:23:21;6.70;87.80
20337;DHT22;10326;53.660;10.200;2023-02-01T06:25:50;6.70;87.70
20337;DHT22;10326;53.660;10.200;2023-02-01T06:28:17;6.70;87.70
20337;DHT22;10326;53.660;10.200;2023-02-01T06:30:44;6.70;87.70
20337;DHT22;10326;53.660;10.200;2023-02-01T06:33:13;6.70;87.60
20337;DHT22;10326;53.660;10.200;2023-02-01T06:35:41;6.70;87.60
20337;DHT22;10326;53.660;10.200;2023-02-01T06:38:09;6.70;87.60
20337;DHT22;10326;53.660;10.200;2023-02-01T06:40:38;6.60;87.50
20337;DHT22;10326;53.660;10.200;2023-02-01T06:43:06;6.60;87.60
20337;DHT22;10326;53.660;10.200;2023-02-01T06:45:33;6.60;87.60
20337;DHT22;10326;53.660;10.200;2023-02-01T06:48:00;6.60;87.60
20337;DHT22;10326;53.660;10.200;2023-02-01T06:50:28;6.60;87.70
20337;DHT22;10326;53.660;10.200;2023-02-01T06:52:55;6.60;87.80
20337;DHT22;10326;53.660;10.200;2023-02-01T06:55:22;6.60;87.90
20337;DHT22;10326;53.660;10.200;2023-02-01T06:57:54;6.60;87.90
20337;DHT22;10326;53.660;10.200;2023-02-01T07:00:22;6.60;88.00
20337;DHT22;10326;53.660;10.200;2023-02-01T07:02:49;6.60;88.00
20337;DHT22;10326;53.660;10.200;2023-02-01T07:05:16;6.60;88.10
20337;DHT22;10326;53.660;10.200;2023-02-01T07:07:44;6.60;88.10
20337;DHT22;10326;53.660;10.200;2023-02-01T07:10:11;6.60;88.20
20337;DHT22;10326;53.660;10.200;2023-02-01T07:12:38;6.60;88.40
20337;DHT22;10326;53.660;10.200;2023-02-01T07:15:07;6.70;88.40
20337;DHT22;10326;53.660;10.200;2023-02-01T07:17:35;6.70;88.60
20337;DHT22;10326;53.660;10.200;2023-02-01T07:20:02;6.70;88.70
20337;DHT22;10326;53.660;10.200;2023-02-01T07:22:29;6.80;89.50
20337;DHT22;10326;53.660;10.200;2023-02-01T07:24:56;6.80;88.90
20337;DHT22;10326;53.660;10.200;2023-02-01T07:27:23;6.80;88.80
20337;DHT22;10326;53.660;10.200;2023-02-01T07:29:51;6.80;88.90
20337;DHT22;10326;53.660;10.200;2023-02-01T07:32:19;6.90;89.60
20337;DHT22;10326;53.660;10.200;2023-02-01T07:34:46;6.90;89.10
20337;DHT22;10326;53.660;10.200;2023-02-01T07:37:13;6.90;89.10
20337;DHT22;10326;53.660;10.200;2023-02-01T07:39:40;7.00;89.30
20337;DHT22;10326;53.660;10.200;2023-02-01T07:42:07;7.00;89.40
20337;DHT22;10326;53.660;10.200;2023-02-01T07:44:34;7.00;89.30
20337;DHT22;10326;53.660;10.200;2023-02-01T07:47:01;7.10;89.40
20337;DHT22;10326;53.660;10.200;2023-02-01T07:49:30;7.10;89.60
20337;DHT22;10326;53.660;10.200;2023-02-01T07:51:57;7.10;89.50
20337;DHT22;10326;53.660;10.200;2023-02-01T07:54:24;7.20;89.70
20337;DHT22;10326;53.660;10.200;2023-02-01T07:56:51;7.20;89.80
20337;DHT22;10326;53.660;10.200;2023-02-01T07:59:18;7.30;90.00
20337;DHT22;10326;53.660;10.200;2023-02-01T08:01:45;7.30;90.00
20337;DHT22;10326;53.660;10.200;2023-02-01T08:04:11;7.30;90.00
20337;DHT22;10326;53.660;10.200;2023-02-01T08:06:41;7.40;90.10
20337;DHT22;10326;53.660;10.200;2023-02-01T08:09:08;7.40;90.10
20337;DHT22;10326;53.660;10.200;2023-02-01T08:11:36;7.50;90.10
20337;DHT22;10326;53.660;10.200;2023-02-01T08:14:04;7.50;90.10
20337;DHT22;10326;53.660;10.200;2023-02-01T08:16:32;7.60;90.10
20337;DHT22;10326;53.660;10.200;2023-02-01T08:19:00;7.60;90.00
20337;DHT22;10326;53.660;10.200;2023-02-01T08:21:28;7.60;90.00
20337;DHT22;10326;53.660;10.200;2023-02-01T08:24:04;7.70;90.00
20337;DHT22;10326;53.660;10.200;2023-02-01T08:26:31;7.70;90.00
20337;DHT22;10326;53.660;10.200;2023-02-01T08:29:00;7.80;90.00
20337;DHT22;10326;53.660;10.200;2023-02-01T08:31:30;7.80;90.20
20337;DHT22;10326;53.660;10.200;2023-02-01T08:33:59;7.80;90.00
20337;DHT22;10326;53.660;10.200;2023-02-01T08:36:28;7.80;90.00
20337;DHT22;10326;53.660;10.200;2023-02-01T08:38:56;7.80;90.00
20337;DHT22;10326;53.660;10.200;2023-02-01T08:41:26;7.90;90.00
20337;DHT22;10326;53.660;10.200;2023-02-01T08:43:57;7.90;90.00
20337;DHT22;10326;53.660;10.200;2023-02-01T08:46:24;7.90;90.00
20337;DHT22;10326;53.660;10.200;2023-02-01T08:48:51;8.00;90.00
20337;DHT22;10326;53.660;10.200;2023-02-01T08:51:19;8.00;90.00
20337;DHT22;10326;53.660;10.200;2023-02-01T08:53:48;8.00;90.00
20337;DHT22;10326;53.660;10.200;2023-02-01T08:56:16;8.10;90.00
20337;DHT22;10326;53.660;10.200;2023-02-01T08:58:45;8.10;89.80
20337;DHT22;10326;53.660;10.200;2023-02-01T09:01:14;8.10;89.60
20337;DHT22;10326;53.660;10.200;2023-02-01T09:03:42;8.10;89.60
20337;DHT22;10326;53.660;10.200;2023-02-01T09:06:11;8.10;89.40
20337;DHT22;10326;53.660;10.200;2023-02-01T09:08:40;8.10;89.40
20337;DHT22;10326;53.660;10.200;2023-02-01T09:11:10;8.20;89.50
20337;DHT22;10326;53.660;10.200;2023-02-01T09:13:38;8.20;89.60
20337;DHT22;10326;53.660;10.200;2023-02-01T09:16:07;8.20;89.20
20337;DHT22;10326;53.660;10.200;2023-02-01T09:18:34;8.20;89.20
20337;DHT22;10326;53.660;10.200;2023-02-01T09:21:04;8.20;89.00
20337;DHT22;10326;53.660;10.200;2023-02-01T09:23:32;8.30;89.00
20337;DHT22;10326;53.660;10.200;2023-02-01T09:25:59;8.30;89.00
20337;DHT22;10326;53.660;10.200;2023-02-01T09:28:26;8.30;89.00
20337;DHT22;10326;53.660;10.200;2023-02-01T09:30:55;8.30;89.00
20337;DHT22;10326;53.660;10.200;2023-02-01T09:33:25;8.30;89.00
20337;DHT22;10326;53.660;10.200;2023-02-01T09:35:55;8.40;89.00
20337;DHT22;10326;53.660;10.200;2023-02-01T09:38:23;8.30;88.90
20337;DHT22;10326;53.660;10.200;2023-02-01T09:40:51;8.30;88.90
20337;DHT22;10326;53.660;10.200;2023-02-01T09:43:26;8.40;89.00
20337;DHT22;10326;53.660;10.200;2023-02-01T09:46:04;8.40;89.10
20337;DHT22;10326;53.660;10.200;2023-02-01T09:48:39;8.40;89.20
20337;DHT22;10326;53.660;10.200;2023-02-01T09:51:13;8.40;89.30
20337;DHT22;10326;53.660;10.200;2023-02-01T09:53:46;8.40;89.30
20337;DHT22;10326;53.660;10.200;2023-02-01T09:56:21;8.40;89.30
20337;DHT22;10326;53.660;10.200;2023-02-01T09:58:56;8.50;89.40
20337;DHT22;10326;53.660;10.200;2023-02-01T10:01:28;8.50;89.40
20337;DHT22;10326;53.660;10.200;2023-02-01T10:04:02;8.50;89.10
20337;DHT22;10326;53.660;10.200;2023-02-01T10:06:41;8.50;89.20
20337;DHT22;10326;53.660;10.200;2023-02-01T10:09:23;8.60;89.30
20337;DHT22;10326;53.660;10.200;2023-02-01T10:15:19;8.60;89.00
20337;DHT22;10326;53.660;10.200;2023-02-01T10:18:05;8.70;89.20
20337;DHT22;10326;53.660;10.200;2023-02-01T10:20:52;8.70;89.00
20337;DHT22;10326;53.660;10.200;2023-02-01T10:23:35;8.70;88.70
20337;DHT22;10326;53.660;10.200;2023-02-01T10:26:18;8.80;88.90
20337;DHT22;10326;53.660;10.200;2023-02-01T10:28:49;8.80;88.80
20337;DHT22;10326;53.660;10.200;2023-02-01T10:31:17;8.80;88.50
20337;DHT22;10326;53.660;10.200;2023-02-01T10:33:47;8.90;88.40
20337;DHT22;10326;53.660;10.200;2023-02-01T10:36:21;8.80;88.20
20337;DHT22;10326;53.660;10.200;2023-02-01T10:38:52;8.90;87.90
20337;DHT22;10326;53.660;10.200;2023-02-01T10:41:21;8.80;87.70
20337;DHT22;10326;53.660;10.200;2023-02-01T10:43:53;8.80;87.90
20337;DHT22;10326;53.660;10.200;2023-02-01T10:46:22;8.80;87.80
20337;DHT22;10326;53.660;10.200;2023-02-01T10:48:50;8.80;87.70
20337;DHT22;10326;53.660;10.200;2023-02-01T10:51:23;8.70;87.70
20337;DHT22;10326;53.660;10.200;2023-02-01T10:53:55;8.70;87.80
20337;DHT22;10326;53.660;10.200;2023-02-01T10:56:25;8.70;87.90
20337;DHT22;10326;53.660;10.200;2023-02-01T10:59:00;8.70;88.10
20337;DHT22;10326;53.660;10.200;2023-02-01T11:01:31;8.60;88.30
20337;DHT22;10326;53.660;10.200;2023-02-01T11:04:01;8.70;88.40
20337;DHT22;10326;53.660;10.200;2023-02-01T11:06:32;8.60;88.50
20337;DHT22;10326;53.660;10.200;2023-02-01T11:09:10;8.60;88.60
20337;DHT22;10326;53.660;10.200;2023-02-01T11:11:54;8.60;88.70
20337;DHT22;10326;53.660;10.200;2023-02-01T11:14:31;8.60;88.50
20337;DHT22;10326;53.660;10.200;2023-02-01T11:17:16;8.60;88.50
20337;DHT22;10326;53.660;10.200;2023-02-01T11:19:56;8.70;88.60
20337;DHT22;10326;53.660;10.200;2023-02-01T11:22:27;8.70;88.50
20337;DHT22;10326;53.660;10.200;2023-02-01T11:24:55;8.70;89.00
20337;DHT22;10326;53.660;10.200;2023-02-01T11:27:24;8.70;88.40
20337;DHT22;10326;53.660;10.200;2023-02-01T11:29:55;8.70;88.30
20337;DHT22;10326;53.660;10.200;2023-02-01T11:32:26;8.70;88.10
20337;DHT22;10326;53.660;10.200;2023-02-01T11:34:56;8.70;88.10
20337;DHT22;10326;53.660;10.200;2023-02-01T11:37:28;8.70;88.10
20337;DHT22;10326;53.660;10.200;2023-02-01T11:39:58;8.70;88.20
20337;DHT22;10326;53.660;10.200;2023-02-01T11:42:27;8.60;88.10
20337;DHT22;10326;53.660;10.200;2023-02-01T11:45:17;8.70;88.30
20337;DHT22;10326;53.660;10.200;2023-02-01T11:47:46;8.70;89.00
20337;DHT22;10326;53.660;10.200;2023-02-01T11:50:17;8.70;88.30
20337;DHT22;10326;53.660;10.200;2023-02-01T11:53:02;8.70;89.00
20337;DHT22;10326;53.660;10.200;2023-02-01T11:55:55;8.70;88.50
20337;DHT22;10326;53.660;10.200;2023-02-01T11:58:41;8.80;88.60
20337;DHT22;10326;53.660;10.200;2023-02-01T12:01:26;8.80;88.60
20337;DHT22;10326;53.660;10.200;2023-02-01T12:04:31;8.80;88.50
20337;DHT22;10326;53.660;10.200;2023-02-01T12:07:23;8.80;88.60
20337;DHT22;10326;53.660;10.200;2023-02-01T12:10:12;8.80;88.40
20337;DHT22;10326;53.660;10.200;2023-02-01T12:12:53;8.80;88.40
20337;DHT22;10326;53.660;10.200;2023-02-01T12:15:36;8.80;88.40
20337;DHT22;10326;53.660;10.200;2023-02-01T12:21:45;8.80;88.40
20337;DHT22;10326;53.660;10.200;2023-02-01T12:24:34;8.80;88.20
20337;DHT22;10326;53.660;10.200;2023-02-01T12:27:35;8.80;88.30
20337;DHT22;10326;53.660;10.200;2023-02-01T12:30:38;8.70;88.10
20337;DHT22;10326;53.660;10.200;2023-02-01T12:33:34;8.70;88.00
20337;DHT22;10326;53.660;10.200;2023-02-01T12:36:12;8.70;87.90
20337;DHT22;10326;53.660;10.200;2023-02-01T12:38:57;8.60;87.90
20337;DHT22;10326;53.660;10.200;2023-02-01T12:41:46;8.60;88.00
20337;DHT22;10326;53.660;10.200;2023-02-01T12:44:25;8.50;88.20
20337;DHT22;10326;53.660;10.200;2023-02-01T12:46:59;8.50;88.10
20337;DHT22;10326;53.660;10.200;2023-02-01T12:49:38;8.40;88.00
20337;DHT22;10326;53.660;10.200;2023-02-01T12:52:13;8.40;88.10
20337;DHT22;10326;53.660;10.200;2023-02-01T12:54:47;8.30;88.10
20337;DHT22;10326;53.660;10.200;2023-02-01T12:57:21;8.20;87.90
20337;DHT22;10326;53.660;10.200;2023-02-01T12:59:57;8.20;87.90
20337;DHT22;10326;53.660;10.200;2023-02-01T13:02:35;8.10;87.80
20337;DHT22;10326;53.660;10.200;2023-02-01T13:05:15;8.00;87.70
20337;DHT22;10326;53.660;10.200;2023-02-01T13:07:47;8.00;87.80
20337;DHT22;10326;53.660;10.200;2023-02-01T13:10:21;7.90;87.90
20337;DHT22;10326;53.660;10.200;2023-02-01T13:12:54;7.80;87.90
20337;DHT22;10326;53.660;10.200;2023-02-01T13:15:28;7.80;87.90
20337;DHT22;10326;53.660;10.200;2023-02-01T13:18:00;7.80;88.00
20337;DHT22;10326;53.660;10.200;2023-02-01T13:20:31;7.70;88.10
20337;DHT22;10326;53.660;10.200;2023-02-01T13:23:04;7.70;88.10
20337;DHT22;10326;53.660;10.200;2023-02-01T13:25:37;7.70;88.20
20337;DHT22;10326;53.660;10.200;2023-02-01T13:28:11;7.70;88.30
20337;DHT22;10326;53.660;10.200;2023-02-01T13:31:15;7.70;88.70
20337;DHT22;10326;53.660;10.200;2023-02-01T13:34:28;7.70;89.10
20337;DHT22;10326;53.660;10.200;2023-02-01T13:37:13;7.70;89.20
20337;DHT22;10326;53.660;10.200;2023-02-01T13:39:59;7.70;89.30
20337;DHT22;10326;53.660;10.200;2023-02-01T13:42:44;7.80;89.20
20337;DHT22;10326;53.660;10.200;2023-02-01T13:45:16;7.80;88.90
20337;DHT22;10326;53.660;10.200;2023-02-01T13:47:48;7.80;88.80
20337;DHT22;10326;53.660;10.200;2023-02-01T13:50:22;7.80;88.70
20337;DHT22;10326;53.660;10.200;2023-02-01T13:52:54;7.90;88.60
20337;DHT22;10326;53.660;10.200;2023-02-01T13:55:28;7.80;88.50
20337;DHT22;10326;53.660;10.200;2023-02-01T13:58:04;7.80;88.40
20337;DHT22;10326;53.660;10.200;2023-02-01T14:00:37;7.80;88.20
20337;DHT22;10326;53.660;10.200;2023-02-01T14:03:18;7.80;88.20
20337;DHT22;10326;53.660;10.200;2023-02-01T14:06:05;7.80;88.20
20337;DHT22;10326;53.660;10.200;2023-02-01T14:09:10;7.80;88.40
20337;DHT22;10326;53.660;10.200;2023-02-01T14:11:53;7.80;88.40
20337;DHT22;10326;53.660;10.200;2023-02-01T14:14:44;7.80;88.40
20337;DHT22;10326;53.660;10.200;2023-02-01T14:17:38;7.80;88.50
20337;DHT22;10326;53.660;10.200;2023-02-01T14:23:27;7.80;88.20
20337;DHT22;10326;53.660;10.200;2023-02-01T14:26:28;7.80;88.10
20337;DHT22;10326;53.660;10.200;2023-02-01T14:29:22;7.70;88.00
20337;DHT22;10326;53.660;10.200;2023-02-01T14:31:59;7.70;88.00
20337;DHT22;10326;53.660;10.200;2023-02-01T14:34:35;7.70;88.10
20337;DHT22;10326;53.660;10.200;2023-02-01T14:37:11;7.70;88.10
20337;DHT22;10326;53.660;10.200;2023-02-01T14:39:59;7.60;88.10
20337;DHT22;10326;53.660;10.200;2023-02-01T14:42:30;7.60;88.00
20337;DHT22;10326;53.660;10.200;2023-02-01T14:45:47;7.60;87.80
20337;DHT22;10326;53.660;10.200;2023-02-01T14:48:42;7.60;87.90
20337;DHT22;10326;53.660;10.200;2023-02-01T14:51:14;7.50;87.80
20337;DHT22;10326;53.660;10.200;2023-02-01T14:53:44;7.40;87.60
20337;DHT22;10326;53.660;10.200;2023-02-01T14:56:14;7.40;87.70
20337;DHT22;10326;53.660;10.200;2023-02-01T14:58:50;7.30;87.80
20337;DHT22;10326;53.660;10.200;2023-02-01T15:01:22;7.30;88.00
20337;DHT22;10326;53.660;10.200;2023-02-01T15:03:55;7.30;88.20
20337;DHT22;10326;53.660;10.200;2023-02-01T15:06:29;7.30;88.30
20337;DHT22;10326;53.660;10.200;2023-02-01T15:09:02;7.30;88.40
20337;DHT22;10326;53.660;10.200;2023-02-01T15:11:31;7.30;88.50
20337;DHT22;10326;53.660;10.200;2023-02-01T15:13:57;7.30;88.50
20337;DHT22;10326;53.660;10.200;2023-02-01T15:16:26;7.30;88.50
20337;DHT22;10326;53.660;10.200;2023-02-01T15:19:09;7.30;88.60
20337;DHT22;10326;53.660;10.200;2023-02-01T15:21:48;7.30;88.80
20337;DHT22;10326;53.660;10.200;2023-02-01T15:24:22;7.40;88.80
20337;DHT22;10326;53.660;10.200;2023-02-01T15:26:51;7.40;88.80
20337;DHT22;10326;53.660;10.200;2023-02-01T15:29:20;7.40;88.70
20337;DHT22;10326;53.660;10.200;2023-02-01T15:31:50;7.40;88.70
20337;DHT22;10326;53.660;10.200;2023-02-01T15:34:18;7.50;88.70
20337;DHT22;10326;53.660;10.200;2023-02-01T15:36:47;7.50;88.70
20337;DHT22;10326;53.660;10.200;2023-02-01T15:39:17;7.50;88.60
20337;DHT22;10326;53.660;10.200;2023-02-01T15:41:54;7.50;88.50
20337;DHT22;10326;53.660;10.200;2023-02-01T15:44:33;7.50;88.50
20337;DHT22;10326;53.660;10.200;2023-02-01T15:47:11;7.50;88.50
20337;DHT22;10326;53.660;10.200;2023-02-01T15:49:43;7.50;88.50
20337;DHT22;10326;53.660;10.200;2023-02-01T15:52:21;7.50;88.50
20337;DHT22;10326;53.660;10.200;2023-02-01T15:54:54;7.50;88.60
20337;DHT22;10326;53.660;10.200;2023-02-01T15:57:26;7.50;88.60
20337;DHT22;10326;53.660;10.200;2023-02-01T15:59:58;7.50;88.50
20337;DHT22;10326;53.660;10.200;2023-02-01T16:02:28;7.50;88.70
20337;DHT22;10326;53.660;10.200;2023-02-01T16:05:01;7.40;88.70
20337;DHT22;10326;53.660;10.200;2023-02-01T16:07:31;7.50;88.70
20337;DHT22;10326;53.660;10.200;2023-02-01T16:10:02;7.50;88.80
20337;DHT22;10326;53.660;10.200;2023-02-01T16:12:47;7.50;88.70
20337;DHT22;10326;53.660;10.200;2023-02-01T16:15:14;7.50;88.50
20337;DHT22;10326;53.660;10.200;2023-02-01T16:17:41;7.50;88.60